Time;durP1;ratioP1;P1;durP2;ratioP2;P2;SDS_P1;SDS_P2;PMS_P1;PMS_P2;Temp;Humidity;BMP_temperature;BMP_pressure;BME280_temperature;BME280_humidity;BME280_pressure;Samples;Min_cycle;Max_cycle;Signal;HPM_P1;HPM_P2
2022/07/19 00:01:12;;;;;;;3.67;3.37;;;19.30;99.90;;;;;;5048668;28;20707;-83
2022/07/19 00:03:39;;;;;;;4.17;3.67;;;19.30;99.90;;;;;;5046182;28;20638;-83
2022/07/19 00:06:05;;;;;;;3.17;2.97;;;19.30;99.90;;;;;;5047238;28;20853;-83
2022/07/19 00:08:32;;;;;;;3.53;3.23;;;19.20;99.90;;;;;;5045564;28;20645;-83
2022/07/19 00:10:59;;;;;;;3.30;2.90;;;19.10;99.90;;;;;;5047812;28;20637;-83
2022/07/19 00:13:26;;;;;;;4.40;3.27;;;19.10;99.90;;;;;;5049595;28;20611;-83
2022/07/19 00:15:54;;;;;;;7.27;4.07;;;19.00;99.90;;;;;;5044918;28;20649;-82
2022/07/19 00:18:21;;;;;;;4.00;3.70;;;19.00;99.90;;;;;;5041468;28;20682;-83
2022/07/19 00:20:48;;;;;;;4.27;3.70;;;19.00;99.90;;;;;;5044752;28;20970;-85
2022/07/19 00:23:15;;;;;;;3.87;3.33;;;18.90;99.90;;;;;;5044530;28;20645;-83
2022/07/19 00:25:42;;;;;;;3.60;3.30;;;18.90;99.90;;;;;;5044452;28;20637;-83
2022/07/19 00:28:08;;;;;;;5.10;3.60;;;18.80;99.90;;;;;;5045374;28;20976;-84
2022/07/19 00:30:35;;;;;;;3.50;3.20;;;18.80;99.90;;;;;;5046595;28;20644;-84
2022/07/19 00:33:08;;;;;;;3.90;3.20;;;18.80;99.90;;;;;;5044229;28;20628;-83
2022/07/19 00:35:35;;;;;;;4.43;4.03;;;18.70;99.90;;;;;;5046277;28;20733;-83
2022/07/19 00:38:05;;;;;;;3.83;3.57;;;18.70;99.90;;;;;;5046820;28;21282;-83
2022/07/19 00:40:32;;;;;;;3.57;3.30;;;18.60;99.90;;;;;;5046687;28;20626;-82
2022/07/19 00:42:59;;;;;;;5.90;3.40;;;18.60;99.90;;;;;;5041295;28;20626;-84
2022/07/19 00:45:28;;;;;;;4.00;3.70;;;18.60;99.90;;;;;;5045422;28;21161;-83
2022/07/19 00:47:55;;;;;;;5.10;3.50;;;18.50;99.90;;;;;;5043514;28;20654;-84
2022/07/19 00:50:23;;;;;;;6.10;3.60;;;18.50;99.90;;;;;;5047755;28;20634;-82
2022/07/19 00:52:52;;;;;;;3.40;3.13;;;18.50;99.90;;;;;;5045617;28;20629;-84
2022/07/19 00:55:20;;;;;;;3.57;3.17;;;18.50;99.90;;;;;;5047737;28;20630;-84
2022/07/19 00:57:47;;;;;;;5.00;3.50;;;18.40;99.90;;;;;;5046560;28;20677;-83
2022/07/19 01:00:16;;;;;;;4.60;3.70;;;18.30;99.90;;;;;;5050200;28;20990;-83
2022/07/19 01:02:43;;;;;;;4.23;3.23;;;18.30;99.90;;;;;;5054824;28;20640;-83
2022/07/19 01:05:12;;;;;;;3.30;2.70;;;18.30;99.90;;;;;;5060927;28;20639;-84
2022/07/19 01:07:42;;;;;;;3.33;3.07;;;18.20;99.90;;;;;;5063805;28;20721;-84
2022/07/19 01:10:11;;;;;;;4.33;3.90;;;18.20;99.90;;;;;;5065350;28;20590;-83
2022/07/19 01:12:39;;;;;;;4.27;3.77;;;18.20;99.90;;;;;;5066253;28;21113;-84
2022/07/19 01:15:14;;;;;;;4.43;3.63;;;18.10;99.90;;;;;;5065162;28;20610;-84
2022/07/19 01:17:41;;;;;;;6.30;3.30;;;18.00;99.90;;;;;;5065724;28;20675;-84
2022/07/19 01:20:08;;;;;;;5.60;3.20;;;18.00;99.90;;;;;;5068194;28;20633;-83
2022/07/19 01:22:37;;;;;;;3.70;3.40;;;18.00;99.90;;;;;;5068654;28;20625;-83
2022/07/19 01:25:05;;;;;;;3.53;3.23;;;17.90;99.90;;;;;;5062124;28;20619;-84
2022/07/19 01:27:32;;;;;;;4.00;3.70;;;17.90;99.90;;;;;;5063774;28;20713;-84
2022/07/19 01:29:59;;;;;;;3.70;3.40;;;17.90;99.90;;;;;;5068069;28;20645;-85
2022/07/19 01:32:25;;;;;;;3.70;3.40;;;17.90;99.90;;;;;;5062439;28;20694;-83
2022/07/19 01:34:52;;;;;;;3.60;3.40;;;17.80;99.90;;;;;;5067807;28;20653;-84
2022/07/19 01:37:19;;;;;;;4.57;3.60;;;17.80;99.90;;;;;;5067690;28;20721;-83
2022/07/19 01:39:47;;;;;;;7.17;4.20;;;17.80;99.90;;;;;;5061756;28;20634;-83
2022/07/19 01:42:14;;;;;;;4.10;3.47;;;17.70;99.90;;;;;;5051036;28;21180;-84
2022/07/19 01:44:41;;;;;;;5.27;3.03;;;17.70;99.90;;;;;;5043729;28;20636;-84
2022/07/19 01:47:07;;;;;;;3.90;3.60;;;17.70;99.90;;;;;;5048072;28;20641;-83
2022/07/19 01:49:34;;;;;;;3.63;3.30;;;17.60;99.90;;;;;;5050609;28;20721;-84
2022/07/19 01:52:01;;;;;;;3.30;3.10;;;17.60;99.90;;;;;;5047658;28;21191;-83
2022/07/19 01:54:28;;;;;;;3.70;3.50;;;17.60;99.90;;;;;;5048974;28;20640;-84
2022/07/19 01:56:56;;;;;;;5.27;3.87;;;17.50;99.90;;;;;;5052782;28;20679;-83
2022/07/19 01:59:23;;;;;;;3.60;3.30;;;17.50;99.90;;;;;;5050528;28;20628;-84
2022/07/19 02:01:49;;;;;;;6.07;3.90;;;17.50;99.90;;;;;;5045726;28;20645;-84
2022/07/19 02:04:16;;;;;;;3.40;3.10;;;17.50;99.90;;;;;;5049848;28;21243;-84
2022/07/19 02:06:43;;;;;;;4.83;3.80;;;17.40;99.90;;;;;;5055555;28;20616;-84
2022/07/19 02:09:10;;;;;;;3.93;3.50;;;17.40;99.90;;;;;;5052968;28;21038;-83
2022/07/19 02:11:37;;;;;;;3.10;2.80;;;17.40;99.90;;;;;;5054473;28;20975;-84
2022/07/19 02:14:07;;;;;;;3.07;2.87;;;17.40;99.90;;;;;;5054681;28;20633;-83
2022/07/19 02:16:34;;;;;;;6.37;3.73;;;17.30;99.90;;;;;;5040704;28;20646;-82
2022/07/19 02:19:01;;;;;;;4.43;3.10;;;17.30;99.90;;;;;;5046349;28;20685;-82
2022/07/19 02:21:28;;;;;;;6.17;3.67;;;17.30;99.90;;;;;;5048700;28;20988;-83
2022/07/19 02:23:55;;;;;;;5.00;4.10;;;17.30;99.90;;;;;;5056248;28;20660;-82
2022/07/19 02:26:22;;;;;;;3.67;3.37;;;17.30;99.90;;;;;;5042634;28;21013;-83
2022/07/19 02:28:48;;;;;;;7.10;3.20;;;17.30;99.90;;;;;;5051792;28;20645;-82
2022/07/19 02:31:17;;;;;;;3.33;3.03;;;17.20;99.90;;;;;;5051956;28;20642;-82
2022/07/19 02:33:45;;;;;;;3.20;3.00;;;17.20;99.90;;;;;;5052636;28;20713;-83
2022/07/19 02:36:11;;;;;;;4.90;3.50;;;17.20;99.90;;;;;;5042333;28;20629;-83
2022/07/19 02:38:39;;;;;;;3.23;2.83;;;17.20;99.90;;;;;;5054552;28;20669;-84
2022/07/19 02:41:05;;;;;;;4.20;3.63;;;17.10;99.90;;;;;;5060507;28;20736;-83
2022/07/19 02:43:32;;;;;;;3.70;3.40;;;17.10;99.90;;;;;;5056003;28;20630;-83
2022/07/19 02:45:59;;;;;;;3.10;2.90;;;17.10;99.90;;;;;;5048559;28;20622;-83
2022/07/19 02:48:27;;;;;;;6.67;3.20;;;17.10;99.90;;;;;;5044092;28;20626;-83
2022/07/19 02:50:54;;;;;;;3.50;3.20;;;17.10;99.90;;;;;;5046883;28;20971;-83
2022/07/19 02:53:21;;;;;;;6.03;2.67;;;17.00;99.90;;;;;;5043952;28;20589;-82
2022/07/19 02:55:48;;;;;;;6.67;3.70;;;17.00;99.90;;;;;;5045782;28;20626;-82
2022/07/19 02:58:14;;;;;;;5.03;3.30;;;17.00;99.90;;;;;;5041896;28;20745;-82
2022/07/19 03:00:41;;;;;;;4.20;3.40;;;16.90;99.90;;;;;;5046489;28;21000;-83
2022/07/19 03:05:54;;;;;;;2.87;2.73;;;16.90;99.90;;;;;;5043483;28;20862;-85
2022/07/19 03:08:21;;;;;;;3.93;3.53;;;16.90;99.90;;;;;;5044541;28;20613;-83
2022/07/19 03:10:47;;;;;;;4.63;3.20;;;16.90;99.90;;;;;;5047663;28;20622;-84
2022/07/19 03:13:14;;;;;;;3.90;3.43;;;16.80;99.90;;;;;;5046467;28;21318;-83
2022/07/19 03:15:41;;;;;;;3.57;3.30;;;16.80;99.90;;;;;;5046821;28;20626;-84
2022/07/19 03:18:08;;;;;;;4.30;2.90;;;16.80;99.90;;;;;;5042954;28;20657;-84
2022/07/19 03:20:35;;;;;;;3.27;3.07;;;16.80;99.90;;;;;;5045827;28;20657;-83
2022/07/19 03:23:04;;;;;;;5.00;3.47;;;16.70;99.90;;;;;;5043570;28;20629;-83
2022/07/19 03:25:31;;;;;;;4.57;3.43;;;16.70;99.90;;;;;;5048055;28;20709;-83
2022/07/19 03:27:57;;;;;;;5.10;3.20;;;16.60;99.90;;;;;;5043944;28;20656;-83
2022/07/19 03:30:24;;;;;;;5.57;3.20;;;16.60;99.90;;;;;;5048658;28;20661;-83
2022/07/19 03:32:51;;;;;;;3.60;3.33;;;16.60;99.90;;;;;;5046543;28;20643;-84
2022/07/19 03:35:19;;;;;;;3.87;3.47;;;16.60;99.90;;;;;;5050469;28;20632;-84
2022/07/19 03:37:46;;;;;;;3.40;3.20;;;16.60;99.90;;;;;;5041681;28;20731;-83
2022/07/19 03:40:14;;;;;;;4.23;3.87;;;16.50;99.90;;;;;;5044880;28;20761;-83
2022/07/19 03:42:41;;;;;;;3.07;2.87;;;16.50;99.90;;;;;;5040959;28;20631;-84
2022/07/19 03:45:09;;;;;;;3.60;3.30;;;16.50;99.90;;;;;;5044094;28;20990;-84
2022/07/19 03:47:36;;;;;;;3.87;3.40;;;16.50;99.90;;;;;;5045619;28;20705;-83
2022/07/19 03:50:03;;;;;;;3.83;3.53;;;16.50;99.90;;;;;;5041151;28;20661;-84
2022/07/19 03:52:30;;;;;;;3.63;3.43;;;16.40;99.90;;;;;;5045278;28;21092;-83
2022/07/19 03:54:57;;;;;;;3.73;3.40;;;16.50;99.90;;;;;;5041837;28;20661;-83
2022/07/19 03:57:25;;;;;;;3.70;3.50;;;16.40;99.90;;;;;;5044945;28;20628;-83
2022/07/19 03:59:52;;;;;;;4.20;3.73;;;16.40;99.90;;;;;;5046432;28;20686;-83
2022/07/19 04:02:18;;;;;;;5.10;4.10;;;16.40;99.90;;;;;;5042532;28;20637;-83
2022/07/19 04:04:45;;;;;;;7.00;3.67;;;16.40;99.90;;;;;;5041150;28;20977;-83
2022/07/19 04:07:12;;;;;;;4.43;3.47;;;16.50;99.90;;;;;;5041959;28;20622;-83
2022/07/19 04:09:39;;;;;;;4.10;3.80;;;16.50;99.90;;;;;;5046327;28;21334;-83
2022/07/19 04:12:06;;;;;;;3.93;3.63;;;16.50;99.90;;;;;;5045047;28;20783;-84
2022/07/19 04:14:34;;;;;;;3.80;3.40;;;16.50;99.90;;;;;;5045183;28;20625;-83
2022/07/19 04:17:04;;;;;;;4.23;3.80;;;16.40;99.90;;;;;;5041249;28;20756;-83
2022/07/19 04:19:31;;;;;;;4.27;3.87;;;16.40;99.90;;;;;;5038188;28;21044;-83
2022/07/19 04:21:58;;;;;;;4.60;4.20;;;16.50;99.90;;;;;;5045554;28;20671;-83
2022/07/19 04:24:25;;;;;;;4.43;4.03;;;16.50;99.90;;;;;;5042266;28;20636;-83
2022/07/19 04:26:51;;;;;;;5.60;4.77;;;16.50;99.90;;;;;;5045088;28;21037;-83
2022/07/19 04:29:18;;;;;;;4.90;3.67;;;16.50;99.90;;;;;;5045761;28;20652;-83
2022/07/19 04:31:46;;;;;;;4.67;4.27;;;16.60;99.90;;;;;;5041147;28;20653;-83
2022/07/19 04:34:13;;;;;;;3.93;3.33;;;16.60;99.90;;;;;;5044419;28;20636;-84
2022/07/19 04:36:40;;;;;;;4.30;3.83;;;16.60;99.90;;;;;;5045999;28;20632;-84
2022/07/19 04:39:07;;;;;;;4.83;4.43;;;16.70;99.90;;;;;;5044722;28;20689;-84
2022/07/19 04:41:34;;;;;;;3.80;3.60;;;16.70;99.90;;;;;;5044699;28;21187;-84
2022/07/19 04:44:01;;;;;;;4.63;4.23;;;16.80;99.90;;;;;;5045215;28;20637;-84
2022/07/19 04:46:27;;;;;;;3.57;3.27;;;16.80;99.90;;;;;;5043340;28;20618;-84
2022/07/19 04:48:56;;;;;;;3.70;3.40;;;16.80;99.90;;;;;;5042243;28;21161;-84
2022/07/19 04:51:22;;;;;;;5.43;4.83;;;16.80;99.90;;;;;;5045856;28;20632;-84
2022/07/19 04:53:49;;;;;;;5.93;3.83;;;16.90;99.90;;;;;;5045389;28;21119;-84
2022/07/19 04:56:17;;;;;;;5.70;3.70;;;17.00;99.90;;;;;;5045374;28;21223;-84
2022/07/19 04:58:44;;;;;;;4.93;4.10;;;17.10;99.90;;;;;;5039869;28;21256;-84
2022/07/19 05:01:11;;;;;;;4.33;3.93;;;17.10;99.90;;;;;;5046844;28;20636;-84
2022/07/19 05:03:38;;;;;;;4.33;4.03;;;17.20;99.90;;;;;;5048289;28;20614;-83
2022/07/19 05:06:07;;;;;;;3.40;2.90;;;17.30;99.90;;;;;;5042689;28;20622;-82
2022/07/19 05:08:34;;;;;;;5.40;3.27;;;17.30;99.90;;;;;;5043512;28;20622;-81
2022/07/19 05:11:02;;;;;;;4.60;3.43;;;17.40;99.90;;;;;;5046937;28;20617;-81
2022/07/19 05:13:29;;;;;;;4.50;4.10;;;17.50;99.90;;;;;;5044177;28;20705;-82
2022/07/19 05:15:56;;;;;;;3.83;3.53;;;17.50;99.90;;;;;;5046948;28;20644;-82
2022/07/19 05:18:23;;;;;;;5.47;4.00;;;17.50;99.90;;;;;;5048952;28;20670;-83
2022/07/19 05:20:49;;;;;;;5.30;3.40;;;17.60;99.90;;;;;;5048623;28;20648;-82
2022/07/19 05:23:18;;;;;;;5.20;3.50;;;17.70;99.90;;;;;;5044904;28;20664;-83
2022/07/19 05:25:44;;;;;;;3.80;3.50;;;17.70;99.90;;;;;;5047956;28;20641;-82
2022/07/19 05:28:11;;;;;;;4.13;3.43;;;17.90;99.90;;;;;;5048880;28;21002;-82
2022/07/19 05:30:38;;;;;;;3.50;3.20;;;18.00;99.90;;;;;;5048939;28;21547;-83
2022/07/19 05:33:05;;;;;;;3.63;3.40;;;18.10;99.90;;;;;;5046079;28;20673;-82
2022/07/19 05:35:32;;;;;;;4.13;3.83;;;18.20;99.90;;;;;;5047559;28;20680;-83
2022/07/19 05:37:59;;;;;;;3.77;3.47;;;18.40;99.90;;;;;;5047095;28;21154;-82
2022/07/19 05:40:27;;;;;;;3.93;3.60;;;18.50;99.90;;;;;;5048264;28;20657;-80
2022/07/19 05:42:54;;;;;;;7.63;4.10;;;18.60;99.90;;;;;;5050199;28;20637;-80
2022/07/19 05:45:21;;;;;;;6.40;3.90;;;18.70;99.90;;;;;;5043511;28;20630;-82
2022/07/19 05:47:48;;;;;;;4.67;4.00;;;18.80;99.90;;;;;;5043049;28;20646;-82
2022/07/19 05:50:15;;;;;;;4.40;3.77;;;18.90;99.90;;;;;;5054796;28;20684;-81
2022/07/19 05:52:43;;;;;;;4.57;4.17;;;19.00;99.90;;;;;;5050529;28;20633;-81
2022/07/19 05:55:10;;;;;;;8.13;3.90;;;19.10;99.90;;;;;;5045620;28;20999;-82
2022/07/19 05:57:38;;;;;;;7.47;4.13;;;19.20;99.90;;;;;;5046907;28;20630;-82
2022/07/19 06:00:06;;;;;;;5.30;3.90;;;19.20;99.90;;;;;;5047640;28;20784;-81
2022/07/19 06:02:34;;;;;;;4.13;3.80;;;19.30;99.90;;;;;;5046762;28;21223;-81
2022/07/19 06:05:01;;;;;;;4.57;4.17;;;19.40;99.90;;;;;;5045391;28;20732;-81
2022/07/19 06:07:27;;;;;;;3.80;3.50;;;19.50;99.90;;;;;;5044267;28;20629;-81
2022/07/19 06:09:54;;;;;;;5.23;4.33;;;19.60;99.90;;;;;;5042034;28;20685;-81
2022/07/19 06:12:21;;;;;;;7.20;3.90;;;19.70;99.90;;;;;;5047709;28;20633;-81
2022/07/19 06:14:49;;;;;;;3.97;3.60;;;19.80;99.90;;;;;;5048875;28;20637;-81
2022/07/19 06:17:16;;;;;;;5.43;3.70;;;19.90;99.90;;;;;;5047772;28;20725;-82
2022/07/19 06:19:43;;;;;;;3.73;3.43;;;20.00;99.90;;;;;;5043739;28;20685;-82
2022/07/19 06:22:09;;;;;;;3.80;3.50;;;20.10;99.90;;;;;;5049232;28;20630;-83
2022/07/19 06:24:36;;;;;;;4.33;3.77;;;20.20;99.90;;;;;;5041003;28;20832;-82
2022/07/19 06:27:03;;;;;;;4.80;3.37;;;20.40;99.90;;;;;;5047972;28;20632;-83
2022/07/19 06:29:30;;;;;;;7.47;3.93;;;20.50;99.90;;;;;;5047552;28;20664;-82
2022/07/19 06:31:58;;;;;;;2.90;2.70;;;20.60;99.90;;;;;;5044714;28;20637;-83
2022/07/19 06:34:25;;;;;;;3.80;3.50;;;20.80;99.90;;;;;;5046731;28;20638;-83
2022/07/19 06:36:52;;;;;;;4.83;3.67;;;20.90;99.90;;;;;;5044954;28;20720;-81
2022/07/19 06:39:18;;;;;;;5.90;3.50;;;21.00;99.60;;;;;;5049172;28;20760;-82
2022/07/19 06:41:47;;;;;;;3.47;3.17;;;21.10;99.40;;;;;;5049621;28;21260;-82
2022/07/19 06:44:14;;;;;;;3.93;3.53;;;21.30;98.70;;;;;;5052156;28;21214;-82
2022/07/19 06:46:41;;;;;;;5.60;3.10;;;21.40;98.50;;;;;;5050426;28;20627;-81
2022/07/19 06:49:09;;;;;;;5.20;3.67;;;21.50;98.50;;;;;;5055626;28;20653;-82
2022/07/19 06:51:36;;;;;;;7.00;3.90;;;21.60;98.70;;;;;;5054700;28;20969;-82
2022/07/19 06:54:03;;;;;;;9.63;3.27;;;21.70;98.30;;;;;;5056311;28;20625;-81
2022/07/19 06:56:30;;;;;;;4.80;3.50;;;21.80;98.10;;;;;;5056400;28;20614;-81
2022/07/19 06:58:57;;;;;;;4.63;3.43;;;21.90;98.10;;;;;;5048798;28;20692;-82
2022/07/19 07:01:25;;;;;;;6.60;3.20;;;22.00;97.70;;;;;;5054851;28;20983;-82
2022/07/19 07:03:52;;;;;;;3.60;3.03;;;22.10;97.90;;;;;;5053622;28;20698;-82
2022/07/19 07:06:20;;;;;;;4.00;3.40;;;22.20;97.80;;;;;;5048601;28;20651;-82
2022/07/19 07:08:47;;;;;;;9.37;3.57;;;22.50;98.00;;;;;;5049179;28;20658;-82
2022/07/19 07:11:14;;;;;;;4.20;3.00;;;22.60;97.70;;;;;;5048179;28;21263;-82
2022/07/19 07:13:41;;;;;;;3.93;2.73;;;22.70;97.50;;;;;;5047635;28;20633;-82
2022/07/19 07:16:09;;;;;;;5.53;3.20;;;22.80;97.20;;;;;;5041103;28;20621;-83
2022/07/19 07:18:36;;;;;;;3.60;2.97;;;23.00;97.20;;;;;;5041914;28;20650;-82
2022/07/19 07:21:03;;;;;;;4.43;3.43;;;23.10;96.90;;;;;;5047584;28;21202;-82
2022/07/19 07:23:31;;;;;;;3.10;2.90;;;23.20;96.60;;;;;;5043045;28;20643;-82
2022/07/19 07:25:58;;;;;;;5.27;2.90;;;23.30;96.30;;;;;;5046087;28;20632;-82
2022/07/19 07:28:25;;;;;;;2.93;2.73;;;23.40;96.40;;;;;;5045130;28;20618;-82
2022/07/19 07:30:51;;;;;;;3.20;2.90;;;23.50;95.70;;;;;;5046437;28;20622;-82
2022/07/19 07:33:19;;;;;;;7.57;3.37;;;23.60;95.30;;;;;;5040477;28;20644;-83
2022/07/19 07:35:46;;;;;;;5.67;3.43;;;23.80;95.10;;;;;;5044273;28;20633;-82
2022/07/19 07:38:13;;;;;;;5.80;3.30;;;23.90;94.80;;;;;;5044937;28;20688;-82
2022/07/19 07:40:41;;;;;;;5.13;3.27;;;24.10;94.60;;;;;;5046217;28;20682;-82
2022/07/19 07:43:08;;;;;;;5.77;2.70;;;24.20;94.30;;;;;;5046401;28;20665;-82
2022/07/19 07:45:35;;;;;;;5.40;2.80;;;24.30;93.70;;;;;;5045488;28;20634;-81
2022/07/19 07:48:02;;;;;;;5.53;3.10;;;24.40;93.40;;;;;;5049653;28;21211;-82
2022/07/19 07:50:29;;;;;;;3.63;3.20;;;24.50;93.20;;;;;;5047301;28;20633;-82
2022/07/19 07:52:55;;;;;;;3.17;2.87;;;24.70;93.20;;;;;;5045637;28;20624;-81
2022/07/19 07:55:22;;;;;;;5.80;3.03;;;24.80;93.10;;;;;;5043136;28;20627;-82
2022/07/19 07:57:50;;;;;;;4.23;3.50;;;24.90;92.60;;;;;;5045074;28;20698;-81
2022/07/19 08:00:18;;;;;;;6.30;2.93;;;25.10;92.60;;;;;;5043350;28;20673;-81
2022/07/19 08:02:46;;;;;;;4.00;3.17;;;25.30;92.10;;;;;;5046302;28;20622;-82
2022/07/19 08:05:13;;;;;;;6.10;2.97;;;25.40;91.80;;;;;;5042489;28;20650;-82
2022/07/19 08:07:40;;;;;;;5.60;3.30;;;25.50;91.80;;;;;;5042868;28;20704;-82
2022/07/19 08:10:09;;;;;;;3.20;2.90;;;25.50;91.50;;;;;;5045849;28;20658;-82
2022/07/19 08:12:36;;;;;;;5.40;3.13;;;25.70;91.30;;;;;;5043956;28;20633;-83
2022/07/19 08:15:06;;;;;;;4.03;3.10;;;25.80;90.70;;;;;;5045122;28;20638;-83
2022/07/19 08:17:32;;;;;;;3.13;2.90;;;26.00;90.00;;;;;;5046638;28;20630;-83
2022/07/19 08:20:00;;;;;;;4.33;3.03;;;26.10;89.70;;;;;;5042129;28;20669;-83
2022/07/19 08:22:28;;;;;;;3.80;2.80;;;26.20;89.00;;;;;;5045189;28;20662;-83
2022/07/19 08:24:55;;;;;;;4.03;3.10;;;26.40;87.00;;;;;;5043244;28;20665;-83
2022/07/19 08:27:21;;;;;;;6.63;3.10;;;26.50;86.70;;;;;;5046687;28;20641;-83
2022/07/19 08:29:48;;;;;;;4.53;2.80;;;26.70;84.50;;;;;;5046497;28;20739;-82
2022/07/19 08:32:17;;;;;;;2.87;2.53;;;26.80;83.90;;;;;;5041732;28;20733;-83
2022/07/19 08:34:43;;;;;;;5.30;2.50;;;27.00;82.10;;;;;;5045327;28;20994;-83
2022/07/19 08:37:10;;;;;;;6.00;2.53;;;27.20;79.90;;;;;;5044609;28;20633;-83
2022/07/19 08:39:37;;;;;;;5.33;2.87;;;27.40;79.40;;;;;;5042225;28;20696;-83
2022/07/19 08:42:04;;;;;;;3.97;2.13;;;27.50;77.90;;;;;;5045035;28;20634;-83
2022/07/19 08:44:35;;;;;;;3.07;2.20;;;27.60;77.20;;;;;;5043432;28;20638;-83
2022/07/19 08:47:03;;;;;;;6.00;2.33;;;27.70;74.70;;;;;;5045529;28;21156;-83
2022/07/19 08:49:31;;;;;;;4.90;1.97;;;27.90;68.20;;;;;;5044345;28;20645;-83
2022/07/19 08:51:58;;;;;;;4.20;1.90;;;28.10;67.40;;;;;;5049039;28;20986;-83
2022/07/19 08:54:25;;;;;;;3.83;1.50;;;28.30;68.30;;;;;;5038710;28;20664;-83
2022/07/19 08:59:37;;;;;;;7.80;1.87;;;28.60;64.10;;;;;;5041646;28;20754;-83
2022/07/19 09:02:04;;;;;;;3.07;2.10;;;28.60;62.50;;;;;;5044573;28;20653;-82
2022/07/19 09:04:32;;;;;;;2.10;2.00;;;28.70;61.80;;;;;;5045408;28;20626;-82
2022/07/19 09:06:59;;;;;;;3.27;1.83;;;28.80;60.60;;;;;;5042399;28;20621;-82
2022/07/19 09:09:28;;;;;;;2.70;1.70;;;28.90;61.80;;;;;;5047472;28;20741;-82
2022/07/19 09:11:57;;;;;;;3.53;2.10;;;29.00;60.20;;;;;;5041408;28;20749;-83
2022/07/19 09:14:25;;;;;;;2.37;2.10;;;29.10;60.90;;;;;;5043764;28;20646;-83
2022/07/19 09:17:03;;;;;;;3.33;2.67;;;29.20;60.10;;;;;;5047474;28;20969;-83
2022/07/19 09:19:34;;;;;;;2.67;2.47;;;29.40;59.20;;;;;;5042805;28;20662;-83
2022/07/19 09:22:02;;;;;;;3.20;2.23;;;29.40;57.90;;;;;;5044827;28;20654;-82
2022/07/19 09:24:34;;;;;;;2.93;2.43;;;29.50;57.60;;;;;;5043469;28;20635;-83
2022/07/19 09:27:04;;;;;;;2.80;2.50;;;29.60;57.20;;;;;;5043276;28;20652;-83
2022/07/19 09:29:33;;;;;;;4.30;2.20;;;29.60;56.70;;;;;;5045621;28;20632;-83
2022/07/19 09:32:06;;;;;;;2.50;2.30;;;29.80;57.10;;;;;;5041250;28;20651;-83
2022/07/19 09:34:36;;;;;;;5.90;2.93;;;29.90;56.90;;;;;;5045741;28;21168;-83
2022/07/19 09:37:18;;;;;;;4.80;2.57;;;29.90;56.20;;;;;;5045592;28;20618;-82
2022/07/19 09:39:46;;;;;;;3.87;2.57;;;30.10;55.10;;;;;;5024257;28;20653;-82
2022/07/19 09:42:15;;;;;;;11.40;3.00;;;30.10;55.30;;;;;;5046922;28;21488;-82
2022/07/19 09:44:43;;;;;;;5.00;2.60;;;30.20;55.80;;;;;;5044689;28;20665;-82
2022/07/19 09:47:10;;;;;;;3.20;2.97;;;30.30;53.00;;;;;;5045487;28;21180;-82
2022/07/19 09:49:39;;;;;;;2.60;2.40;;;30.30;53.40;;;;;;5046190;28;21298;-82
2022/07/19 09:52:06;;;;;;;5.40;2.63;;;30.40;52.60;;;;;;5047136;28;20654;-83
2022/07/19 09:54:32;;;;;;;5.13;2.43;;;30.50;52.40;;;;;;5034826;28;21382;-83
2022/07/19 09:57:00;;;;;;;3.17;2.93;;;30.50;51.20;;;;;;5027068;28;20731;-83
2022/07/19 09:59:27;;;;;;;3.17;2.87;;;30.50;51.30;;;;;;5035300;28;20632;-83
2022/07/19 10:01:57;;;;;;;3.07;2.77;;;30.50;52.00;;;;;;5042019;28;20708;-83
2022/07/19 10:04:26;;;;;;;6.43;3.60;;;30.60;51.30;;;;;;5037072;28;20623;-83
2022/07/19 10:06:54;;;;;;;4.83;2.50;;;30.70;51.90;;;;;;5034159;28;21025;-82
2022/07/19 10:09:23;;;;;;;5.30;2.23;;;30.70;52.20;;;;;;5039073;28;20644;-83
2022/07/19 10:11:53;;;;;;;8.07;2.77;;;30.80;51.40;;;;;;5044915;28;20949;-83
2022/07/19 10:14:19;;;;;;;5.73;2.87;;;30.90;51.10;;;;;;5028201;28;20686;-83
2022/07/19 10:17:03;;;;;;;3.20;2.90;;;30.90;50.50;;;;;;5034211;28;20623;-83
2022/07/19 10:19:37;;;;;;;4.33;2.47;;;31.00;50.20;;;;;;5039557;28;20616;-83
2022/07/19 10:22:09;;;;;;;2.93;2.73;;;31.00;50.00;;;;;;5039721;28;20645;-82
2022/07/19 10:24:54;;;;;;;2.70;2.50;;;31.10;50.50;;;;;;5040629;28;20700;-82
2022/07/19 10:27:38;;;;;;;3.83;3.10;;;31.10;48.80;;;;;;5045089;28;20647;-82
2022/07/19 10:30:25;;;;;;;5.97;3.60;;;31.10;49.30;;;;;;5046640;28;20964;-82
2022/07/19 10:32:55;;;;;;;3.80;2.67;;;31.10;49.70;;;;;;5039861;28;20617;-83
2022/07/19 10:35:28;;;;;;;5.90;3.00;;;31.30;49.40;;;;;;5044664;28;20728;-83
2022/07/19 10:38:07;;;;;;;6.33;3.00;;;31.40;48.40;;;;;;5044096;28;21373;-83
2022/07/19 10:40:42;;;;;;;3.13;2.83;;;31.60;48.40;;;;;;5043223;28;20768;-83
2022/07/19 10:43:11;;;;;;;3.20;2.57;;;31.60;47.90;;;;;;5042998;28;20728;-83
2022/07/19 10:45:40;;;;;;;3.53;3.13;;;31.70;48.50;;;;;;5038979;28;20630;-83
2022/07/19 10:48:16;;;;;;;3.53;3.20;;;31.70;46.50;;;;;;5044294;28;20625;-83
2022/07/19 10:50:58;;;;;;;7.43;3.27;;;31.80;46.60;;;;;;5038443;28;20658;-82
2022/07/19 10:54:05;;;;;;;4.47;3.23;;;31.90;46.40;;;;;;5032874;28;20625;-82
2022/07/19 10:56:46;;;;;;;5.00;2.47;;;32.00;45.40;;;;;;5036726;28;20649;-82
2022/07/19 10:59:14;;;;;;;4.17;3.10;;;32.20;47.50;;;;;;5030306;28;20629;-82
2022/07/19 11:01:56;;;;;;;5.23;4.10;;;32.40;45.10;;;;;;5042300;28;20677;-82
2022/07/19 11:04:29;;;;;;;7.43;2.97;;;32.70;45.90;;;;;;5040561;28;20623;-82
2022/07/19 11:07:21;;;;;;;2.93;2.73;;;32.80;43.70;;;;;;5030832;28;20667;-82
2022/07/19 11:09:50;;;;;;;3.17;2.87;;;32.90;43.40;;;;;;5027917;28;20673;-82
2022/07/19 11:12:30;;;;;;;6.50;2.73;;;33.10;42.90;;;;;;5042090;28;21413;-82
2022/07/19 11:14:58;;;;;;;8.03;3.13;;;33.30;43.20;;;;;;5036196;28;21446;-82
2022/07/19 11:17:25;;;;;;;3.90;2.60;;;33.50;42.90;;;;;;5027242;28;20980;-83
2022/07/19 11:20:00;;;;;;;4.50;2.87;;;33.70;44.00;;;;;;5036259;28;20628;-82
2022/07/19 11:22:27;;;;;;;3.17;2.60;;;34.00;42.50;;;;;;5045145;28;21206;-83
2022/07/19 11:24:55;;;;;;;3.50;3.10;;;33.90;41.30;;;;;;5034093;28;20641;-83
2022/07/19 11:27:23;;;;;;;5.43;2.73;;;33.90;41.00;;;;;;5041946;28;20702;-83
2022/07/19 11:29:59;;;;;;;6.60;2.63;;;34.20;41.20;;;;;;5042201;28;20706;-82
2022/07/19 11:32:26;;;;;;;4.60;2.90;;;34.40;40.40;;;;;;5039644;28;20736;-82
2022/07/19 11:34:58;;;;;;;9.00;2.80;;;34.60;41.30;;;;;;5031053;28;20638;-82
2022/07/19 11:37:29;;;;;;;4.43;2.70;;;34.90;41.10;;;;;;5039655;28;21415;-83
2022/07/19 11:39:57;;;;;;;4.70;2.70;;;35.30;40.80;;;;;;5044577;28;21002;-83
2022/07/19 11:42:31;;;;;;;6.03;2.90;;;35.60;40.00;;;;;;5038015;28;20657;-83
2022/07/19 11:45:07;;;;;;;10.30;3.10;;;35.60;38.60;;;;;;5026211;28;21142;-83
2022/07/19 11:47:34;;;;;;;3.93;2.80;;;35.70;39.60;;;;;;5043120;28;20624;-83
2022/07/19 11:50:05;;;;;;;3.43;3.10;;;36.00;39.60;;;;;;5044866;28;20695;-83
2022/07/19 11:52:46;;;;;;;3.67;3.30;;;36.20;38.70;;;;;;5032674;28;20933;-82
2022/07/19 11:55:13;;;;;;;3.50;3.20;;;36.40;38.20;;;;;;5041393;28;20617;-83
2022/07/19 11:57:40;;;;;;;3.57;2.90;;;36.60;37.30;;;;;;5042762;28;20633;-83
2022/07/19 12:00:14;;;;;;;7.63;3.00;;;36.80;37.40;;;;;;5043467;28;21495;-83
2022/07/19 12:02:52;;;;;;;3.23;2.93;;;37.00;37.40;;;;;;5041321;28;20621;-83
2022/07/19 12:05:19;;;;;;;6.77;3.23;;;36.70;36.30;;;;;;5042083;28;20218;-83
2022/07/19 12:07:47;;;;;;;5.07;2.40;;;36.90;36.60;;;;;;5037479;28;20669;-83
2022/07/19 12:10:44;;;;;;;11.00;3.70;;;37.40;37.60;;;;;;5039480;28;20544;-83
2022/07/19 12:13:13;;;;;;;2.57;2.37;;;37.50;35.20;;;;;;5028792;28;20236;-83
2022/07/19 12:15:55;;;;;;;3.15;2.88;;;37.70;35.00;;;;;;5036612;28;20202;-83
2022/07/19 12:18:41;;;;;;;5.60;3.10;;;37.80;35.20;;;;;;5038324;28;20202;-83
2022/07/19 12:21:28;;;;;;;3.63;3.30;;;38.00;35.30;;;;;;5038376;28;20547;-83
2022/07/19 12:24:15;;;;;;;3.13;2.92;;;38.40;36.40;;;;;;5033817;28;20202;-83
2022/07/19 12:26:44;;;;;;;3.47;3.08;;;38.20;35.20;;;;;;5040650;28;20198;-83
2022/07/19 12:29:19;;;;;;;4.45;3.50;;;38.40;34.50;;;;;;5040379;28;20626;-83
2022/07/19 12:31:48;;;;;;;3.85;3.40;;;38.50;34.80;;;;;;5036973;28;20314;-83
2022/07/19 12:34:16;;;;;;;3.75;3.40;;;38.80;35.30;;;;;;5034991;28;20569;-83
2022/07/19 12:36:43;;;;;;;8.35;3.13;;;39.30;34.70;;;;;;5041069;28;20203;-83
2022/07/19 12:39:19;;;;;;;3.55;3.00;;;39.60;34.00;;;;;;5041255;28;20690;-83
2022/07/19 12:42:05;;;;;;;3.75;3.45;;;39.90;33.90;;;;;;5036969;28;20233;-83
2022/07/19 12:44:34;;;;;;;3.58;2.95;;;39.90;32.30;;;;;;5036347;28;20202;-83
2022/07/19 12:47:03;;;;;;;5.85;3.10;;;40.10;32.70;;;;;;5038918;28;20199;-82
2022/07/19 12:49:43;;;;;;;8.13;3.45;;;39.40;32.40;;;;;;5036615;28;20210;-83
2022/07/19 12:52:10;;;;;;;4.82;3.08;;;39.20;32.60;;;;;;5036353;28;20215;-83
2022/07/19 12:54:38;;;;;;;6.82;3.42;;;39.70;32.40;;;;;;5033549;28;20215;-83
2022/07/19 12:57:05;;;;;;;8.40;2.97;;;40.00;31.30;;;;;;5033282;28;20230;-83
2022/07/19 12:59:41;;;;;;;7.60;3.40;;;40.40;32.80;;;;;;5031444;28;20195;-82